createdAt,value
2019-02-27T00:01:49.941Z,48.60
2019-02-27T00:04:19.230Z,48.80
2019-02-27T00:06:48.650Z,48.77
2019-02-27T00:09:18.005Z,49.70
2019-02-27T00:11:47.348Z,54.73
2019-02-27T00:14:16.711Z,60.13
2019-02-27T00:16:46.050Z,49.43
2019-02-27T00:19:15.398Z,51.33
2019-02-27T00:21:44.751Z,53.50
2019-02-27T00:24:14.099Z,51.03
2019-02-27T00:26:43.434Z,48.90
2019-02-27T00:29:12.756Z,49.43
2019-02-27T00:31:45.121Z,52.17
2019-02-27T00:34:13.314Z,53.50
2019-02-27T00:36:44.819Z,56.63
2019-02-27T00:39:14.814Z,57.20
2019-02-27T00:41:46.026Z,52.67
2019-02-27T00:44:15.230Z,55.37
2019-02-27T00:46:47.076Z,53.53
2019-02-27T00:49:18.259Z,56.63
2019-02-27T00:51:47.587Z,55.57
2019-02-27T00:54:16.912Z,60.03
2019-02-27T00:56:46.259Z,60.37
2019-02-27T00:59:15.599Z,57.97
2019-02-27T01:01:47.295Z,59.70
2019-02-27T01:04:16.004Z,55.40
2019-02-27T01:06:47.458Z,65.10
2019-02-27T01:09:17.690Z,59.40
2019-02-27T01:11:51.446Z,57.90
2019-02-27T01:14:18.077Z,62.97
2019-02-27T01:16:47.699Z,59.37
2019-02-27T01:19:18.510Z,67.27
2019-02-27T01:21:47.839Z,58.73
2019-02-27T01:24:17.423Z,68.07
2019-02-27T01:26:47.383Z,67.40
2019-02-27T01:29:18.097Z,60.00
2019-02-27T01:31:47.808Z,63.07
2019-02-27T01:34:18.157Z,59.43
2019-02-27T01:36:47.476Z,56.27
2019-02-27T01:39:16.819Z,64.30
2019-02-27T01:41:46.177Z,61.87
2019-02-27T01:44:17.343Z,59.93
2019-02-27T01:46:46.777Z,61.23
2019-02-27T01:49:16.814Z,63.37
2019-02-27T01:51:46.384Z,59.07
2019-02-27T01:54:15.784Z,62.13
2019-02-27T01:56:45.130Z,60.20
2019-02-27T01:59:16.926Z,62.37
2019-02-27T02:01:46.643Z,64.10
2019-02-27T02:04:19.961Z,61.10
2019-02-27T02:06:47.205Z,60.20
2019-02-27T02:09:39.457Z,62.57
2019-02-27T02:12:12.619Z,60.23
2019-02-27T02:15:21.732Z,60.00
2019-02-27T02:18:32.193Z,57.37
2019-02-27T02:22:00.926Z,60.67
2019-02-27T02:25:25.080Z,62.13
2019-02-27T02:28:48.083Z,61.17
2019-02-27T02:31:52.514Z,56.03
2019-02-27T02:35:01.902Z,59.27
2019-02-27T02:38:15.097Z,62.30
2019-02-27T02:41:34.092Z,67.27
2019-02-27T02:44:32.544Z,66.10
2019-02-27T02:47:11.677Z,60.17
2019-02-27T02:50:08.320Z,58.57
2019-02-27T02:53:06.587Z,59.63
2019-02-27T02:56:03.306Z,57.07
2019-02-27T02:58:39.367Z,60.37
2019-02-27T03:01:36.142Z,69.53
2019-02-27T03:04:57.895Z,65.03
2019-02-27T03:08:12.035Z,64.47
2019-02-27T03:11:17.752Z,63.60
2019-02-27T03:14:16.866Z,66.90
2019-02-27T03:17:27.183Z,65.33
2019-02-27T03:20:36.086Z,64.70
2019-02-27T03:23:58.380Z,66.17
2019-02-27T03:27:17.558Z,61.87
2019-02-27T03:30:40.073Z,70.93
2019-02-27T03:33:53.511Z,64.10
2019-02-27T03:36:46.126Z,67.07
2019-02-27T03:39:49.083Z,65.20
2019-02-27T03:42:52.231Z,64.07
2019-02-27T03:45:50.913Z,65.20
2019-02-27T03:48:41.506Z,66.73
2019-02-27T03:51:46.043Z,60.97
2019-02-27T03:54:36.184Z,59.33
2019-02-27T03:57:54.893Z,64.90
2019-02-27T04:00:53.721Z,60.70
2019-02-27T04:04:17.457Z,64.87
2019-02-27T04:07:35.767Z,62.97
2019-02-27T04:10:05.237Z,66.13
2019-02-27T04:12:34.699Z,62.73
2019-02-27T04:15:06.150Z,67.80
2019-02-27T04:17:33.697Z,64.40
2019-02-27T04:20:03.026Z,65.40
2019-02-27T04:22:36.214Z,59.27
2019-02-27T04:25:03.417Z,68.43
2019-02-27T04:27:32.758Z,63.83
2019-02-27T04:30:02.103Z,61.80
2019-02-27T04:32:31.450Z,66.53
2019-02-27T04:35:00.785Z,65.30
2019-02-27T04:37:30.103Z,63.20
2019-02-27T04:39:59.548Z,64.73
2019-02-27T04:42:28.873Z,74.97
2019-02-27T04:44:58.217Z,66.00
2019-02-27T04:47:29.162Z,57.53
2019-02-27T04:49:58.638Z,61.30
2019-02-27T04:52:28.010Z,61.70
2019-02-27T04:54:57.381Z,63.57
2019-02-27T04:57:26.694Z,62.37
2019-02-27T04:59:57.711Z,63.60
2019-02-27T05:02:27.034Z,57.90
2019-02-27T05:04:56.377Z,62.07
2019-02-27T05:07:25.716Z,58.10
2019-02-27T05:09:55.153Z,58.83
2019-02-27T05:12:25.905Z,58.30
2019-02-27T05:14:55.210Z,61.93
2019-02-27T05:17:24.710Z,55.17
2019-02-27T05:19:54.012Z,58.97
2019-02-27T05:22:26.566Z,58.03
2019-02-27T05:24:54.546Z,61.03
2019-02-27T05:27:23.922Z,61.57
2019-02-27T05:29:53.238Z,58.77
2019-02-27T05:32:25.288Z,60.43
2019-02-27T05:34:53.631Z,61.30
2019-02-27T05:37:22.971Z,61.73
2019-02-27T05:39:53.403Z,67.23
2019-02-27T05:42:22.750Z,58.40
2019-02-27T05:44:55.503Z,61.13
2019-02-27T05:47:23.218Z,64.63
2019-02-27T05:49:52.704Z,63.33
2019-02-27T05:52:22.052Z,72.90
2019-02-27T05:54:51.406Z,78.60
2019-02-27T05:57:21.075Z,77.10
2019-02-27T05:59:51.782Z,74.20
2019-02-27T06:02:21.108Z,62.40
2019-02-27T06:04:50.473Z,62.87
2019-02-27T06:07:19.798Z,61.73
2019-02-27T06:09:49.240Z,62.10
2019-02-27T06:12:18.593Z,59.20
2019-02-27T06:14:47.902Z,62.57
2019-02-27T06:17:17.266Z,55.03
2019-02-27T06:19:47.662Z,57.73
2019-02-27T06:22:16.977Z,59.20
2019-02-27T06:24:46.407Z,53.53
2019-02-27T06:27:16.114Z,57.23
2019-02-27T06:29:45.429Z,57.00
2019-02-27T06:32:14.781Z,60.30
2019-02-27T06:34:44.119Z,53.63
2019-02-27T06:37:15.604Z,55.90
2019-02-27T06:39:44.833Z,56.20
2019-02-27T06:42:14.221Z,63.40
2019-02-27T06:44:43.550Z,59.03
2019-02-27T06:47:12.892Z,53.27
2019-02-27T06:49:42.227Z,58.40
2019-02-27T06:52:11.570Z,57.37
2019-02-27T06:54:40.949Z,57.30
2019-02-27T06:57:10.901Z,61.87
2019-02-27T06:59:40.287Z,57.17
2019-02-27T07:02:09.648Z,57.47
2019-02-27T07:04:39.479Z,52.60
2019-02-27T07:07:10.622Z,55.03
2019-02-27T07:09:39.943Z,54.23
2019-02-27T07:12:09.283Z,60.67
2019-02-27T07:14:39.102Z,54.13
2019-02-27T07:17:09.268Z,56.67
2019-02-27T07:19:38.713Z,55.30
2019-02-27T07:22:09.319Z,58.30
2019-02-27T07:24:39.331Z,60.17
2019-02-27T07:27:08.654Z,54.73
2019-02-27T07:29:38.004Z,56.90
2019-02-27T07:32:07.780Z,56.37
2019-02-27T07:34:37.216Z,55.73
2019-02-27T07:37:06.620Z,56.80
2019-02-27T07:39:36.173Z,54.20
2019-02-27T07:42:05.594Z,52.27
2019-02-27T07:44:35.839Z,133.30
2019-02-27T07:47:05.258Z,75.30
2019-02-27T07:49:34.839Z,73.93
2019-02-27T07:52:04.182Z,68.07
2019-02-27T07:54:33.521Z,63.13
2019-02-27T07:57:03.042Z,57.63
2019-02-27T07:59:32.607Z,58.30
2019-02-27T08:02:03.074Z,55.77
2019-02-27T08:04:32.702Z,61.03
2019-02-27T08:07:02.188Z,57.30
2019-02-27T08:09:31.568Z,67.20
2019-02-27T08:12:03.221Z,56.37
2019-02-27T08:14:36.960Z,57.03
2019-02-27T08:17:10.288Z,56.00
2019-02-27T08:19:34.940Z,57.27
2019-02-27T08:22:04.412Z,67.20
2019-02-27T08:24:33.880Z,61.23
2019-02-27T08:27:03.189Z,61.83
2019-02-27T08:29:32.645Z,65.40
2019-02-27T08:32:05.367Z,62.27
2019-02-27T08:34:34.462Z,64.83
2019-02-27T08:37:03.880Z,65.90
2019-02-27T08:39:33.219Z,58.43
2019-02-27T08:42:03.590Z,70.77
2019-02-27T08:44:33.472Z,65.60
2019-02-27T08:47:04.246Z,58.50
2019-02-27T08:49:33.723Z,66.67
2019-02-27T08:52:03.042Z,75.07
2019-02-27T08:54:33.103Z,77.20
2019-02-27T08:57:02.546Z,71.07
2019-02-27T08:59:31.867Z,75.03
2019-02-27T09:02:01.198Z,79.13
2019-02-27T09:04:30.519Z,78.43
2019-02-27T09:07:02.797Z,77.07
2019-02-27T09:09:30.911Z,81.53
2019-02-27T09:12:00.262Z,79.57
2019-02-27T09:14:29.586Z,84.73
2019-02-27T09:16:58.925Z,82.63
2019-02-27T09:19:28.257Z,86.27
2019-02-27T09:21:59.940Z,82.93
2019-02-27T09:24:30.430Z,90.43
2019-02-27T09:26:59.803Z,87.63
2019-02-27T09:29:29.126Z,81.03
2019-02-27T09:31:58.449Z,86.70
2019-02-27T09:34:27.827Z,85.50
2019-02-27T09:36:57.165Z,82.23
2019-02-27T09:39:30.702Z,87.30
2019-02-27T09:41:57.550Z,87.47
2019-02-27T09:44:26.901Z,86.23
2019-02-27T09:46:56.301Z,86.10
2019-02-27T09:49:25.666Z,81.37
2019-02-27T09:51:56.345Z,75.57
2019-02-27T09:54:26.077Z,75.13
2019-02-27T09:56:55.455Z,74.07
2019-02-27T09:59:24.786Z,76.17
2019-02-27T10:01:54.126Z,77.27
2019-02-27T10:04:25.952Z,73.00
2019-02-27T10:06:54.514Z,71.60
2019-02-27T10:09:23.872Z,72.03
2019-02-27T10:11:53.249Z,64.67
2019-02-27T10:14:22.577Z,75.47
2019-02-27T10:16:51.918Z,73.13
2019-02-27T10:19:21.278Z,79.93
2019-02-27T10:21:50.644Z,84.60
2019-02-27T10:24:19.971Z,73.83
2019-02-27T10:26:49.335Z,74.10
2019-02-27T10:29:19.094Z,72.73
2019-02-27T10:31:48.466Z,78.23
2019-02-27T10:34:18.306Z,80.20
2019-02-27T10:36:48.451Z,81.00
2019-02-27T10:39:17.889Z,80.77
2019-02-27T10:41:49.770Z,75.90
2019-02-27T10:44:18.311Z,76.73
2019-02-27T10:46:47.645Z,80.17
2019-02-27T10:49:21.426Z,68.13
2019-02-27T10:51:48.065Z,67.90
2019-02-27T10:54:17.394Z,74.10
2019-02-27T10:56:46.751Z,67.30
2019-02-27T10:59:16.101Z,68.23
2019-02-27T11:01:45.447Z,72.97
2019-02-27T11:04:15.393Z,73.63
2019-02-27T11:06:45.237Z,73.90
2019-02-27T11:09:26.490Z,66.97
2019-02-27T11:11:57.551Z,78.73
2019-02-27T11:14:31.627Z,73.30
2019-02-27T11:17:02.048Z,70.03
2019-02-27T11:19:29.137Z,62.07
2019-02-27T11:21:59.095Z,64.00
2019-02-27T11:24:28.431Z,69.30
2019-02-27T11:26:57.774Z,63.73
2019-02-27T11:29:27.144Z,69.10
2019-02-27T11:31:56.470Z,63.03
2019-02-27T11:34:25.827Z,61.43
2019-02-27T11:36:55.162Z,60.83
2019-02-27T11:39:24.519Z,58.93
2019-02-27T11:41:53.958Z,58.63
2019-02-27T11:44:23.284Z,68.00
2019-02-27T11:46:58.710Z,62.03
2019-02-27T11:49:23.697Z,59.27
2019-02-27T11:51:53.190Z,55.87
2019-02-27T11:54:23.288Z,58.27
2019-02-27T11:56:56.298Z,63.73
2019-02-27T11:59:23.735Z,57.00
2019-02-27T12:01:55.333Z,52.97
2019-02-27T12:04:24.174Z,59.37
2019-02-27T12:06:53.496Z,50.53
2019-02-27T12:09:22.856Z,62.77
2019-02-27T12:11:52.201Z,55.93
2019-02-27T12:14:21.589Z,53.80
2019-02-27T12:16:51.675Z,51.63
2019-02-27T12:19:21.769Z,46.03
2019-02-27T12:21:51.108Z,46.73
2019-02-27T12:24:20.462Z,43.40
2019-02-27T12:26:49.801Z,48.13
2019-02-27T12:29:19.191Z,41.50
2019-02-27T12:31:48.998Z,49.53
2019-02-27T12:34:18.379Z,42.53
2019-02-27T12:36:49.932Z,38.80
2019-02-27T12:39:18.809Z,39.33
2019-02-27T12:41:49.045Z,46.27
2019-02-27T12:44:18.417Z,42.80
2019-02-27T12:46:47.808Z,48.20
2019-02-27T12:49:19.985Z,43.50
2019-02-27T12:51:48.215Z,47.57
2019-02-27T12:54:17.587Z,41.83
2019-02-27T12:56:47.189Z,43.13
2019-02-27T12:59:16.558Z,49.77
2019-02-27T13:01:50.718Z,43.20
2019-02-27T13:04:19.807Z,44.07
2019-02-27T13:06:48.097Z,43.20
2019-02-27T13:09:17.446Z,47.03
2019-02-27T13:11:46.782Z,36.60
2019-02-27T13:14:16.151Z,40.53
2019-02-27T13:16:49.212Z,38.27
2019-02-27T13:19:16.608Z,40.40
2019-02-27T13:21:45.976Z,44.90
2019-02-27T13:24:16.002Z,37.43
2019-02-27T13:26:45.353Z,40.67
2019-02-27T13:29:14.694Z,38.00
2019-02-27T13:31:44.023Z,40.47
2019-02-27T13:34:13.893Z,41.43
2019-02-27T13:36:43.856Z,37.83
2019-02-27T13:39:13.191Z,42.93
2019-02-27T13:41:45.540Z,39.00
2019-02-27T13:44:13.639Z,37.67
2019-02-27T13:46:42.954Z,35.67
2019-02-27T13:49:14.000Z,37.20
2019-02-27T13:51:43.361Z,39.37
2019-02-27T13:54:12.726Z,37.53
2019-02-27T13:56:42.153Z,37.17
2019-02-27T13:59:11.760Z,36.67
2019-02-27T14:01:41.099Z,38.73
2019-02-27T14:04:10.441Z,39.67
2019-02-27T14:06:42.853Z,34.53
2019-02-27T14:09:10.855Z,35.37
2019-02-27T14:11:40.191Z,34.47
2019-02-27T14:14:09.571Z,38.87
2019-02-27T14:16:38.905Z,40.27
2019-02-27T14:19:08.262Z,37.97
2019-02-27T14:21:39.569Z,34.00
2019-02-27T14:24:08.717Z,38.73
2019-02-27T14:26:38.279Z,34.03
2019-02-27T14:29:09.117Z,38.03
2019-02-27T14:31:40.105Z,37.87
2019-02-27T14:34:09.563Z,29.00
2019-02-27T14:36:39.324Z,33.40
2019-02-27T14:39:12.510Z,31.83
2019-02-27T14:41:41.861Z,35.17
2019-02-27T14:44:11.175Z,32.23
2019-02-27T14:46:41.936Z,30.73
2019-02-27T14:49:13.843Z,32.00
2019-02-27T14:51:43.402Z,29.50
2019-02-27T14:54:13.778Z,36.07
2019-02-27T14:56:43.236Z,29.63
2019-02-27T14:59:12.827Z,30.90
2019-02-27T15:01:42.276Z,29.80
2019-02-27T15:04:11.596Z,33.03
2019-02-27T15:06:40.926Z,25.53
2019-02-27T15:09:10.401Z,33.10
2019-02-27T15:11:39.971Z,30.30
2019-02-27T15:14:09.563Z,33.33
2019-02-27T15:16:38.995Z,31.53
2019-02-27T15:19:08.424Z,32.40
2019-02-27T15:21:38.015Z,33.47
2019-02-27T15:24:10.517Z,30.87
2019-02-27T15:26:45.169Z,36.23
2019-02-27T15:29:11.078Z,35.63
2019-02-27T15:31:40.423Z,32.83
2019-02-27T15:34:12.110Z,35.07
2019-02-27T15:36:40.835Z,28.80
2019-02-27T15:39:11.816Z,31.47
2019-02-27T15:41:41.140Z,33.30
2019-02-27T15:44:10.485Z,32.73
2019-02-27T15:46:40.287Z,32.77
2019-02-27T15:49:12.821Z,31.57
2019-02-27T15:51:40.781Z,32.20
2019-02-27T15:54:10.523Z,38.27
2019-02-27T15:56:42.008Z,42.20
2019-02-27T15:59:11.037Z,60.40
2019-02-27T16:01:41.522Z,60.60
2019-02-27T16:04:10.847Z,52.57
2019-02-27T16:06:40.687Z,65.50
2019-02-27T16:09:10.628Z,44.83
2019-02-27T16:11:39.962Z,46.87
2019-02-27T16:14:10.295Z,55.40
2019-02-27T16:16:40.811Z,51.80
2019-02-27T16:19:10.812Z,44.87
2019-02-27T16:21:40.930Z,54.63
2019-02-27T16:24:10.304Z,56.00
2019-02-27T16:26:39.624Z,50.27
2019-02-27T16:29:08.950Z,56.13
2019-02-27T16:31:39.982Z,56.47
2019-02-27T16:34:09.371Z,55.63
2019-02-27T16:36:41.617Z,68.90
2019-02-27T16:39:11.341Z,60.37
2019-02-27T16:41:40.727Z,74.80
2019-02-27T16:44:11.140Z,74.43
2019-02-27T16:46:44.576Z,68.77
2019-02-27T16:49:11.833Z,76.57
2019-02-27T16:51:42.950Z,62.87
2019-02-27T16:54:13.302Z,65.30
2019-02-27T16:56:46.563Z,66.50
2019-02-27T16:59:13.760Z,60.60
2019-02-27T17:01:43.103Z,53.90
2019-02-27T17:04:12.459Z,61.27
2019-02-27T17:06:43.292Z,62.53
2019-02-27T17:09:13.348Z,62.57
2019-02-27T17:11:42.765Z,69.03
2019-02-27T17:14:12.134Z,62.90
2019-02-27T17:16:44.634Z,58.87
2019-02-27T17:19:12.727Z,52.70
2019-02-27T17:21:42.109Z,61.60
2019-02-27T17:24:11.430Z,52.93
2019-02-27T17:26:40.763Z,54.97
2019-02-27T17:29:10.115Z,71.07
2019-02-27T17:31:48.929Z,61.70
2019-02-27T17:34:13.668Z,69.83
2019-02-27T17:36:43.175Z,57.83
2019-02-27T17:39:12.506Z,68.40
2019-02-27T17:41:44.748Z,62.33
2019-02-27T17:44:13.001Z,53.03
2019-02-27T17:46:42.320Z,60.63
2019-02-27T17:49:11.654Z,56.83
2019-02-27T17:51:42.120Z,59.50
2019-02-27T17:54:11.494Z,62.00
2019-02-27T17:56:40.864Z,63.63
2019-02-27T17:59:10.230Z,71.77
2019-02-27T18:01:39.618Z,70.83
2019-02-27T18:04:08.952Z,62.70
2019-02-27T18:06:38.302Z,58.37
2019-02-27T18:09:08.598Z,60.70
2019-02-27T18:11:37.966Z,62.13
2019-02-27T18:14:09.890Z,64.63
2019-02-27T18:16:38.390Z,57.83
2019-02-27T18:19:07.901Z,62.23
2019-02-27T18:21:37.229Z,73.37
2019-02-27T18:24:06.864Z,71.27
2019-02-27T18:26:36.222Z,62.90
2019-02-27T18:29:07.730Z,62.93
2019-02-27T18:31:36.854Z,70.13
2019-02-27T18:34:06.201Z,72.47
2019-02-27T18:36:42.595Z,77.63
2019-02-27T18:39:07.805Z,72.83
2019-02-27T18:41:39.748Z,67.50
2019-02-27T18:44:09.210Z,72.23
2019-02-27T18:46:38.549Z,80.93
2019-02-27T18:49:07.904Z,74.80
2019-02-27T18:51:37.248Z,79.97
2019-02-27T18:54:06.627Z,74.47
2019-02-27T18:56:36.960Z,75.20
2019-02-27T18:59:07.083Z,79.57
2019-02-27T19:01:36.451Z,73.70
2019-02-27T19:04:06.585Z,78.27
2019-02-27T19:06:36.352Z,86.13
2019-02-27T19:09:06.954Z,88.30
2019-02-27T19:11:36.576Z,80.23
2019-02-27T19:14:06.478Z,81.30
2019-02-27T19:16:38.426Z,76.33
2019-02-27T19:19:07.870Z,82.33
2019-02-27T19:21:37.432Z,82.83
2019-02-27T19:24:06.792Z,87.13
2019-02-27T19:26:36.243Z,78.17
2019-02-27T19:29:05.850Z,82.97
2019-02-27T19:31:35.440Z,84.37
2019-02-27T19:34:07.442Z,86.57
2019-02-27T19:36:36.030Z,90.10
2019-02-27T19:39:07.260Z,86.03
2019-02-27T19:41:39.539Z,73.80
2019-02-27T19:44:08.087Z,83.10
2019-02-27T19:46:37.456Z,86.37
2019-02-27T19:49:06.796Z,83.13
2019-02-27T19:51:36.138Z,90.47
2019-02-27T19:54:05.546Z,86.30
2019-02-27T19:56:35.543Z,87.10
2019-02-27T19:59:05.660Z,84.90
2019-02-27T20:01:36.095Z,89.63
2019-02-27T20:04:09.047Z,83.30
2019-02-27T20:06:38.454Z,85.00
2019-02-27T20:09:09.075Z,92.30
2019-02-27T20:11:40.298Z,90.03
2019-02-27T20:14:09.993Z,89.57
2019-02-27T20:16:39.427Z,90.30
2019-02-27T20:19:32.773Z,86.67
2019-02-27T20:22:02.113Z,87.13
2019-02-27T20:24:32.409Z,89.47
2019-02-27T20:27:02.600Z,89.00
2019-02-27T20:29:32.065Z,87.53
2019-02-27T20:32:01.873Z,85.97
2019-02-27T20:34:31.240Z,94.73
2019-02-27T20:37:03.262Z,97.00
2019-02-27T20:39:31.677Z,89.40
2019-02-27T20:42:01.048Z,80.67
2019-02-27T20:44:30.390Z,83.10
2019-02-27T20:46:59.855Z,83.07
2019-02-27T20:49:29.206Z,84.40
2019-02-27T20:51:58.548Z,81.57
2019-02-27T20:54:27.904Z,85.37
2019-02-27T20:56:57.303Z,81.80
2019-02-27T20:59:26.632Z,87.20
2019-02-27T21:01:56.037Z,81.43
2019-02-27T21:04:25.427Z,87.37
2019-02-27T21:06:54.751Z,80.57
2019-02-27T21:09:24.080Z,85.80
2019-02-27T21:11:54.867Z,84.37
2019-02-27T21:14:24.284Z,82.27
2019-02-27T21:16:53.558Z,84.27
2019-02-27T21:19:22.903Z,89.00
2019-02-27T21:21:54.419Z,83.60
2019-02-27T21:24:23.475Z,79.50
2019-02-27T21:26:54.155Z,84.10
2019-02-27T21:29:23.638Z,77.67
2019-02-27T21:31:53.026Z,81.60
2019-02-27T21:34:22.369Z,84.60
2019-02-27T21:36:51.704Z,89.23
2019-02-27T21:39:22.545Z,85.67
2019-02-27T21:41:53.295Z,81.17
2019-02-27T21:44:25.706Z,80.43
2019-02-27T21:46:54.859Z,81.97
2019-02-27T21:49:25.182Z,82.63
2019-02-27T21:51:54.560Z,83.57
2019-02-27T21:54:23.916Z,79.73
2019-02-27T21:56:55.110Z,80.63
2019-02-27T21:59:24.335Z,86.83
2019-02-27T22:01:56.288Z,83.07
2019-02-27T22:04:24.832Z,82.17
2019-02-27T22:06:54.268Z,82.53
2019-02-27T22:09:23.662Z,82.00
2019-02-27T22:11:52.977Z,80.77
2019-02-27T22:14:22.300Z,88.20
2019-02-27T22:16:51.642Z,91.47
2019-02-27T22:19:20.963Z,86.53
2019-02-27T22:21:50.336Z,85.77
2019-02-27T22:24:20.988Z,88.43
2019-02-27T22:26:50.886Z,77.93
2019-02-27T22:29:20.226Z,88.97
2019-02-27T22:31:49.578Z,89.23
2019-02-27T22:34:18.912Z,89.37
2019-02-27T22:36:48.255Z,85.67
2019-02-27T22:39:17.683Z,80.87
2019-02-27T22:41:47.038Z,88.03
2019-02-27T22:44:16.354Z,84.50
2019-02-27T22:46:47.854Z,82.97
2019-02-27T22:49:16.771Z,82.33
2019-02-27T22:51:48.322Z,79.43
2019-02-27T22:54:17.191Z,83.93
2019-02-27T22:56:50.050Z,85.87
2019-02-27T22:59:17.598Z,91.90
2019-02-27T23:01:51.064Z,81.97
2019-02-27T23:04:20.474Z,85.50
2019-02-27T23:06:51.293Z,83.83
2019-02-27T23:11:53.761Z,79.60
2019-02-27T23:14:23.063Z,79.43
2019-02-27T23:16:52.538Z,85.27
2019-02-27T23:19:22.041Z,80.73
2019-02-27T23:21:51.394Z,79.77
2019-02-27T23:24:20.740Z,72.53
2019-02-27T23:26:54.321Z,74.60
2019-02-27T23:29:21.274Z,78.60
2019-02-27T23:31:50.609Z,75.23
2019-02-27T23:34:19.959Z,73.83
2019-02-27T23:36:49.287Z,78.07
2019-02-27T23:39:18.635Z,74.00
2019-02-27T23:41:47.966Z,72.07
2019-02-27T23:44:17.322Z,76.03
2019-02-27T23:46:51.334Z,67.93
2019-02-27T23:49:17.867Z,69.57
2019-02-27T23:51:48.409Z,68.97
2019-02-27T23:54:18.059Z,72.87
2019-02-27T23:56:47.421Z,78.33
2019-02-27T23:59:16.743Z,69.83
